sensor_id;sensor_type;location;lat;lon;timestamp;pressure;altitude;pressure_sealevel;temperature;humidity
64551;BME280;50945;44.472;-123.352;2023-07-22T00:01:10;100428.38;;;31.76;37.31
64551;BME280;50945;44.472;-123.352;2023-07-22T00:03:36;100435.69;;;31.69;37.03
64551;BME280;50945;44.472;-123.352;2023-07-22T00:06:07;100427.31;;;31.55;37.00
64551;BME280;50945;44.472;-123.352;2023-07-22T00:08:34;100430.53;;;31.48;37.12
64551;BME280;50945;44.472;-123.352;2023-07-22T00:11:01;100431.03;;;31.41;37.30
64551;BME280;50945;44.472;-123.352;2023-07-22T00:13:27;100422.31;;;31.29;37.44
64551;BME280;50945;44.472;-123.352;2023-07-22T00:15:54;100427.91;;;31.20;37.58
64551;BME280;50945;44.472;-123.352;2023-07-22T00:18:20;100419.00;;;31.04;37.48
64551;BME280;50945;44.472;-123.352;2023-07-22T00:20:46;100415.06;;;30.92;37.76
64551;BME280;50945;44.472;-123.352;2023-07-22T00:23:13;100414.34;;;30.86;37.85
64551;BME280;50945;44.472;-123.352;2023-07-22T00:25:41;100415.25;;;30.73;38.18
64551;BME280;50945;44.472;-123.352;2023-07-22T00:28:07;100414.84;;;30.65;38.12
64551;BME280;50945;44.472;-123.352;2023-07-22T00:30:33;100412.47;;;30.59;38.22
64551;BME280;50945;44.472;-123.352;2023-07-22T00:33:00;100415.50;;;30.48;38.51
64551;BME280;50945;44.472;-123.352;2023-07-22T00:35:27;100403.44;;;30.34;38.43
64551;BME280;50945;44.472;-123.352;2023-07-22T00:37:53;100407.31;;;30.24;38.97
64551;BME280;50945;44.472;-123.352;2023-07-22T00:40:19;100409.22;;;30.15;38.84
64551;BME280;50945;44.472;-123.352;2023-07-22T00:42:45;100410.88;;;30.02;39.09
64551;BME280;50945;44.472;-123.352;2023-07-22T00:45:11;100405.38;;;29.83;39.41
64551;BME280;50945;44.472;-123.352;2023-07-22T00:47:38;100409.59;;;29.67;39.58
64551;BME280;50945;44.472;-123.352;2023-07-22T00:50:07;100411.03;;;29.50;39.70
64551;BME280;50945;44.472;-123.352;2023-07-22T00:52:39;100421.75;;;29.34;39.67
64551;BME280;50945;44.472;-123.352;2023-07-22T00:55:06;100408.72;;;29.25;39.91
64551;BME280;50945;44.472;-123.352;2023-07-22T00:57:33;100418.16;;;29.15;39.63
64551;BME280;50945;44.472;-123.352;2023-07-22T01:00:00;100420.56;;;29.02;39.75
64551;BME280;50945;44.472;-123.352;2023-07-22T01:02:26;100404.72;;;28.93;39.70
64551;BME280;50945;44.472;-123.352;2023-07-22T01:04:52;100401.75;;;28.84;39.92
64551;BME280;50945;44.472;-123.352;2023-07-22T01:07:18;100412.56;;;28.77;39.99
64551;BME280;50945;44.472;-123.352;2023-07-22T01:09:45;100405.34;;;28.71;40.02
64551;BME280;50945;44.472;-123.352;2023-07-22T01:12:11;100413.56;;;28.67;39.91
64551;BME280;50945;44.472;-123.352;2023-07-22T01:14:41;100399.03;;;28.60;39.83
64551;BME280;50945;44.472;-123.352;2023-07-22T01:17:11;100407.00;;;28.53;39.36
64551;BME280;50945;44.472;-123.352;2023-07-22T01:19:39;100404.66;;;28.41;39.41
64551;BME280;50945;44.472;-123.352;2023-07-22T01:22:06;100411.69;;;28.38;39.36
64551;BME280;50945;44.472;-123.352;2023-07-22T01:24:38;100403.34;;;28.33;39.46
64551;BME280;50945;44.472;-123.352;2023-07-22T01:27:06;100413.81;;;28.28;39.24
64551;BME280;50945;44.472;-123.352;2023-07-22T01:29:36;100410.03;;;28.18;39.43
64551;BME280;50945;44.472;-123.352;2023-07-22T01:32:02;100411.44;;;28.16;39.19
64551;BME280;50945;44.472;-123.352;2023-07-22T01:34:29;100407.88;;;28.10;38.92
64551;BME280;50945;44.472;-123.352;2023-07-22T01:36:57;100402.09;;;28.01;38.78
64551;BME280;50945;44.472;-123.352;2023-07-22T01:39:23;100412.31;;;27.92;38.87
64551;BME280;50945;44.472;-123.352;2023-07-22T01:41:49;100401.72;;;27.84;38.81
64551;BME280;50945;44.472;-123.352;2023-07-22T01:44:15;100415.03;;;27.73;38.76
64551;BME280;50945;44.472;-123.352;2023-07-22T01:46:42;100413.19;;;27.63;38.98
64551;BME280;50945;44.472;-123.352;2023-07-22T01:49:11;100416.34;;;27.57;38.82
64551;BME280;50945;44.472;-123.352;2023-07-22T01:51:38;100416.16;;;27.48;38.61
64551;BME280;50945;44.472;-123.352;2023-07-22T01:54:06;100413.72;;;27.41;38.55
64551;BME280;50945;44.472;-123.352;2023-07-22T01:56:33;100410.38;;;27.34;38.43
64551;BME280;50945;44.472;-123.352;2023-07-22T01:58:59;100417.44;;;27.31;38.24
64551;BME280;50945;44.472;-123.352;2023-07-22T02:01:25;100419.44;;;27.26;37.98
64551;BME280;50945;44.472;-123.352;2023-07-22T02:03:51;100418.97;;;27.13;37.80
64551;BME280;50945;44.472;-123.352;2023-07-22T02:06:18;100419.72;;;26.95;37.76
64551;BME280;50945;44.472;-123.352;2023-07-22T02:08:44;100422.59;;;26.85;37.86
64551;BME280;50945;44.472;-123.352;2023-07-22T02:11:11;100419.84;;;26.74;37.75
64551;BME280;50945;44.472;-123.352;2023-07-22T02:13:37;100419.09;;;26.64;37.85
64551;BME280;50945;44.472;-123.352;2023-07-22T02:16:04;100420.81;;;26.54;37.80
64551;BME280;50945;44.472;-123.352;2023-07-22T02:18:30;100427.88;;;26.42;37.75
64551;BME280;50945;44.472;-123.352;2023-07-22T02:20:57;100430.22;;;26.29;37.80
64551;BME280;50945;44.472;-123.352;2023-07-22T02:23:24;100432.47;;;26.22;37.71
64551;BME280;50945;44.472;-123.352;2023-07-22T02:25:51;100430.28;;;26.14;37.70
64551;BME280;50945;44.472;-123.352;2023-07-22T02:28:18;100431.69;;;26.06;37.64
64551;BME280;50945;44.472;-123.352;2023-07-22T02:30:51;100433.69;;;26.01;37.63
64551;BME280;50945;44.472;-123.352;2023-07-22T02:33:19;100430.06;;;25.95;37.91
64551;BME280;50945;44.472;-123.352;2023-07-22T02:35:45;100439.03;;;25.87;37.70
64551;BME280;50945;44.472;-123.352;2023-07-22T02:38:11;100434.59;;;25.70;37.40
64551;BME280;50945;44.472;-123.352;2023-07-22T02:40:37;100431.53;;;25.61;38.06
64551;BME280;50945;44.472;-123.352;2023-07-22T02:43:04;100433.25;;;25.52;37.60
64551;BME280;50945;44.472;-123.352;2023-07-22T02:45:31;100426.53;;;25.43;37.86
64551;BME280;50945;44.472;-123.352;2023-07-22T02:47:57;100428.78;;;25.36;37.94
64551;BME280;50945;44.472;-123.352;2023-07-22T02:50:23;100433.28;;;25.27;37.88
64551;BME280;50945;44.472;-123.352;2023-07-22T02:52:49;100434.63;;;25.19;37.90
64551;BME280;50945;44.472;-123.352;2023-07-22T02:55:17;100440.81;;;25.11;37.99
64551;BME280;50945;44.472;-123.352;2023-07-22T02:57:47;100442.78;;;25.00;37.75
64551;BME280;50945;44.472;-123.352;2023-07-22T03:00:15;100436.34;;;24.89;37.96
64551;BME280;50945;44.472;-123.352;2023-07-22T03:03:01;100437.16;;;24.79;37.87
64551;BME280;50945;44.472;-123.352;2023-07-22T03:05:29;100443.59;;;24.70;37.84
64551;BME280;50945;44.472;-123.352;2023-07-22T03:07:55;100443.28;;;24.61;37.53
64551;BME280;50945;44.472;-123.352;2023-07-22T03:10:22;100441.25;;;24.51;37.33
64551;BME280;50945;44.472;-123.352;2023-07-22T03:12:49;100443.75;;;24.42;37.33
64551;BME280;50945;44.472;-123.352;2023-07-22T03:15:15;100443.16;;;24.35;36.98
64551;BME280;50945;44.472;-123.352;2023-07-22T03:17:41;100449.28;;;24.22;36.34
64551;BME280;50945;44.472;-123.352;2023-07-22T03:20:10;100444.50;;;24.17;37.18
64551;BME280;50945;44.472;-123.352;2023-07-22T03:22:40;100444.75;;;24.10;37.05
64551;BME280;50945;44.472;-123.352;2023-07-22T03:25:08;100450.03;;;24.02;36.88
64551;BME280;50945;44.472;-123.352;2023-07-22T03:27:37;100445.81;;;23.94;36.85
64551;BME280;50945;44.472;-123.352;2023-07-22T03:30:04;100453.84;;;23.85;36.86
64551;BME280;50945;44.472;-123.352;2023-07-22T03:32:34;100454.31;;;23.72;36.89
64551;BME280;50945;44.472;-123.352;2023-07-22T03:35:01;100462.28;;;23.53;36.90
64551;BME280;50945;44.472;-123.352;2023-07-22T03:37:30;100454.97;;;23.42;36.97
64551;BME280;50945;44.472;-123.352;2023-07-22T03:39:57;100450.66;;;23.29;36.87
64551;BME280;50945;44.472;-123.352;2023-07-22T03:42:23;100447.81;;;23.19;36.80
64551;BME280;50945;44.472;-123.352;2023-07-22T03:44:49;100446.03;;;23.07;36.54
64551;BME280;50945;44.472;-123.352;2023-07-22T03:47:15;100450.38;;;22.98;36.54
64551;BME280;50945;44.472;-123.352;2023-07-22T03:49:41;100463.91;;;22.84;34.87
64551;BME280;50945;44.472;-123.352;2023-07-22T03:52:07;100457.19;;;22.80;36.55
64551;BME280;50945;44.472;-123.352;2023-07-22T03:54:33;100459.63;;;22.71;36.60
64551;BME280;50945;44.472;-123.352;2023-07-22T03:57:00;100462.03;;;22.63;36.64
64551;BME280;50945;44.472;-123.352;2023-07-22T03:59:26;100466.13;;;22.55;36.66
64551;BME280;50945;44.472;-123.352;2023-07-22T04:01:54;100465.75;;;22.46;36.61
64551;BME280;50945;44.472;-123.352;2023-07-22T04:04:20;100469.78;;;22.33;36.47
64551;BME280;50945;44.472;-123.352;2023-07-22T04:06:46;100467.19;;;22.27;36.30
64551;BME280;50945;44.472;-123.352;2023-07-22T04:09:12;100474.94;;;22.25;35.96
64551;BME280;50945;44.472;-123.352;2023-07-22T04:11:39;100466.59;;;22.25;35.82
64551;BME280;50945;44.472;-123.352;2023-07-22T04:14:05;100478.81;;;22.24;35.72
64551;BME280;50945;44.472;-123.352;2023-07-22T04:16:31;100467.63;;;22.18;35.77
64551;BME280;50945;44.472;-123.352;2023-07-22T04:18:57;100473.34;;;22.07;34.53
64551;BME280;50945;44.472;-123.352;2023-07-22T04:21:23;100475.78;;;22.03;35.97
64551;BME280;50945;44.472;-123.352;2023-07-22T04:23:49;100474.03;;;21.97;36.01
64551;BME280;50945;44.472;-123.352;2023-07-22T04:26:15;100479.25;;;21.93;35.94
64551;BME280;50945;44.472;-123.352;2023-07-22T04:28:41;100482.16;;;21.81;35.34
64551;BME280;50945;44.472;-123.352;2023-07-22T04:31:08;100482.69;;;21.78;36.26
64551;BME280;50945;44.472;-123.352;2023-07-22T04:33:35;100482.59;;;21.73;36.28
64551;BME280;50945;44.472;-123.352;2023-07-22T04:36:02;100492.56;;;21.69;36.33
64551;BME280;50945;44.472;-123.352;2023-07-22T04:38:29;100489.63;;;21.59;36.55
64551;BME280;50945;44.472;-123.352;2023-07-22T04:40:55;100488.97;;;21.52;36.38
64551;BME280;50945;44.472;-123.352;2023-07-22T04:43:21;100498.88;;;21.48;36.05
64551;BME280;50945;44.472;-123.352;2023-07-22T04:45:47;100496.84;;;21.43;35.96
64551;BME280;50945;44.472;-123.352;2023-07-22T04:48:19;100501.84;;;21.41;36.02
64551;BME280;50945;44.472;-123.352;2023-07-22T04:50:45;100505.13;;;21.38;35.95
64551;BME280;50945;44.472;-123.352;2023-07-22T04:53:14;100505.53;;;21.30;35.85
64551;BME280;50945;44.472;-123.352;2023-07-22T04:55:41;100511.31;;;21.28;35.77
64551;BME280;50945;44.472;-123.352;2023-07-22T04:58:07;100510.16;;;21.24;35.92
64551;BME280;50945;44.472;-123.352;2023-07-22T05:00:38;100502.31;;;21.21;35.77
64551;BME280;50945;44.472;-123.352;2023-07-22T05:03:04;100510.56;;;21.16;35.78
64551;BME280;50945;44.472;-123.352;2023-07-22T05:05:32;100511.56;;;21.10;35.88
64551;BME280;50945;44.472;-123.352;2023-07-22T05:07:58;100507.88;;;21.04;36.23
64551;BME280;50945;44.472;-123.352;2023-07-22T05:10:24;100510.56;;;20.99;36.04
64551;BME280;50945;44.472;-123.352;2023-07-22T05:12:50;100512.41;;;20.93;36.28
64551;BME280;50945;44.472;-123.352;2023-07-22T05:15:17;100512.81;;;20.85;36.28
64551;BME280;50945;44.472;-123.352;2023-07-22T05:17:43;100517.75;;;20.83;36.39
64551;BME280;50945;44.472;-123.352;2023-07-22T05:20:09;100512.69;;;20.80;36.49
64551;BME280;50945;44.472;-123.352;2023-07-22T05:22:39;100508.16;;;20.74;36.29
64551;BME280;50945;44.472;-123.352;2023-07-22T05:25:06;100509.13;;;20.67;36.78
64551;BME280;50945;44.472;-123.352;2023-07-22T05:27:33;100505.88;;;20.59;36.94
64551;BME280;50945;44.472;-123.352;2023-07-22T05:29:59;100516.28;;;20.51;37.07
64551;BME280;50945;44.472;-123.352;2023-07-22T05:32:27;100514.25;;;20.47;37.10
64551;BME280;50945;44.472;-123.352;2023-07-22T05:34:54;100507.50;;;20.43;37.23
64551;BME280;50945;44.472;-123.352;2023-07-22T05:37:20;100512.69;;;20.39;37.17
64551;BME280;50945;44.472;-123.352;2023-07-22T05:39:46;100514.28;;;20.35;37.40
64551;BME280;50945;44.472;-123.352;2023-07-22T05:42:12;100522.50;;;20.30;37.52
64551;BME280;50945;44.472;-123.352;2023-07-22T05:44:38;100522.41;;;20.25;37.75
64551;BME280;50945;44.472;-123.352;2023-07-22T05:47:05;100520.38;;;20.20;37.89
64551;BME280;50945;44.472;-123.352;2023-07-22T05:49:31;100514.47;;;20.17;37.94
64551;BME280;50945;44.472;-123.352;2023-07-22T05:51:57;100511.34;;;20.13;38.19
64551;BME280;50945;44.472;-123.352;2023-07-22T05:54:24;100515.91;;;20.07;38.21
64551;BME280;50945;44.472;-123.352;2023-07-22T05:56:50;100524.97;;;20.03;38.43
64551;BME280;50945;44.472;-123.352;2023-07-22T05:59:16;100519.56;;;19.96;38.42
64551;BME280;50945;44.472;-123.352;2023-07-22T06:01:42;100526.94;;;19.90;38.71
64551;BME280;50945;44.472;-123.352;2023-07-22T06:04:08;100532.59;;;19.84;38.91
64551;BME280;50945;44.472;-123.352;2023-07-22T06:06:35;100535.47;;;19.77;39.01
64551;BME280;50945;44.472;-123.352;2023-07-22T06:09:01;100541.97;;;19.71;39.29
64551;BME280;50945;44.472;-123.352;2023-07-22T06:11:28;100547.16;;;19.67;39.21
64551;BME280;50945;44.472;-123.352;2023-07-22T06:13:54;100551.25;;;19.65;39.74
64551;BME280;50945;44.472;-123.352;2023-07-22T06:16:24;100547.38;;;19.54;40.60
64551;BME280;50945;44.472;-123.352;2023-07-22T06:18:50;100549.78;;;19.38;41.43
64551;BME280;50945;44.472;-123.352;2023-07-22T06:21:16;100539.38;;;19.22;41.78
64551;BME280;50945;44.472;-123.352;2023-07-22T06:23:42;100540.56;;;19.14;42.04
64551;BME280;50945;44.472;-123.352;2023-07-22T06:26:08;100548.38;;;19.06;42.25
64551;BME280;50945;44.472;-123.352;2023-07-22T06:28:34;100548.09;;;18.95;42.40
64551;BME280;50945;44.472;-123.352;2023-07-22T06:31:00;100555.91;;;18.87;42.40
64551;BME280;50945;44.472;-123.352;2023-07-22T06:33:27;100543.38;;;18.84;42.42
64551;BME280;50945;44.472;-123.352;2023-07-22T06:35:53;100556.97;;;18.86;42.32
64551;BME280;50945;44.472;-123.352;2023-07-22T06:38:19;100562.28;;;18.87;42.28
64551;BME280;50945;44.472;-123.352;2023-07-22T06:40:45;100567.22;;;18.85;42.99
64551;BME280;50945;44.472;-123.352;2023-07-22T06:43:11;100564.97;;;18.75;43.34
64551;BME280;50945;44.472;-123.352;2023-07-22T06:45:37;100561.44;;;18.68;43.67
64551;BME280;50945;44.472;-123.352;2023-07-22T06:48:03;100573.47;;;18.62;43.81
64551;BME280;50945;44.472;-123.352;2023-07-22T06:50:30;100566.28;;;18.54;43.91
64551;BME280;50945;44.472;-123.352;2023-07-22T06:52:56;100571.06;;;18.47;43.93
64551;BME280;50945;44.472;-123.352;2023-07-22T06:55:22;100574.56;;;18.42;44.32
64551;BME280;50945;44.472;-123.352;2023-07-22T06:57:48;100573.31;;;18.38;44.44
64551;BME280;50945;44.472;-123.352;2023-07-22T07:00:14;100567.09;;;18.24;47.12
64551;BME280;50945;44.472;-123.352;2023-07-22T07:02:41;100572.94;;;18.16;44.90
64551;BME280;50945;44.472;-123.352;2023-07-22T07:05:07;100567.91;;;18.07;45.05
64551;BME280;50945;44.472;-123.352;2023-07-22T07:07:34;100564.63;;;17.98;44.84
64551;BME280;50945;44.472;-123.352;2023-07-22T07:10:00;100567.63;;;17.96;44.68
64551;BME280;50945;44.472;-123.352;2023-07-22T07:12:26;100566.97;;;17.94;44.73
64551;BME280;50945;44.472;-123.352;2023-07-22T07:14:53;100571.50;;;17.89;45.03
64551;BME280;50945;44.472;-123.352;2023-07-22T07:17:19;100572.59;;;17.88;44.81
64551;BME280;50945;44.472;-123.352;2023-07-22T07:19:45;100578.97;;;17.88;44.98
64551;BME280;50945;44.472;-123.352;2023-07-22T07:22:11;100581.50;;;17.90;45.17
64551;BME280;50945;44.472;-123.352;2023-07-22T07:24:37;100586.19;;;17.89;46.04
64551;BME280;50945;44.472;-123.352;2023-07-22T07:27:04;100594.50;;;17.89;46.45
64551;BME280;50945;44.472;-123.352;2023-07-22T07:29:30;100588.56;;;17.85;47.29
64551;BME280;50945;44.472;-123.352;2023-07-22T07:31:56;100587.50;;;17.80;47.65
64551;BME280;50945;44.472;-123.352;2023-07-22T07:34:22;100593.97;;;17.74;48.45
64551;BME280;50945;44.472;-123.352;2023-07-22T07:36:49;100590.41;;;17.66;48.51
64551;BME280;50945;44.472;-123.352;2023-07-22T07:39:15;100580.03;;;17.62;49.48
64551;BME280;50945;44.472;-123.352;2023-07-22T07:41:41;100581.31;;;17.59;49.84
64551;BME280;50945;44.472;-123.352;2023-07-22T07:44:07;100580.94;;;17.56;50.08
64551;BME280;50945;44.472;-123.352;2023-07-22T07:46:33;100588.22;;;17.50;50.33
64551;BME280;50945;44.472;-123.352;2023-07-22T07:49:00;100582.94;;;17.42;50.57
64551;BME280;50945;44.472;-123.352;2023-07-22T07:51:29;100592.38;;;17.34;50.70
64551;BME280;50945;44.472;-123.352;2023-07-22T07:53:56;100587.31;;;17.24;51.24
64551;BME280;50945;44.472;-123.352;2023-07-22T07:56:24;100586.31;;;17.19;51.83
64551;BME280;50945;44.472;-123.352;2023-07-22T07:58:51;100586.97;;;17.14;51.29
64551;BME280;50945;44.472;-123.352;2023-07-22T08:01:18;100580.41;;;17.08;51.81
64551;BME280;50945;44.472;-123.352;2023-07-22T08:03:45;100583.00;;;17.03;52.32
64551;BME280;50945;44.472;-123.352;2023-07-22T08:06:11;100585.97;;;17.02;52.66
64551;BME280;50945;44.472;-123.352;2023-07-22T08:08:38;100586.84;;;17.02;52.52
64551;BME280;50945;44.472;-123.352;2023-07-22T08:11:11;100594.50;;;17.00;52.71
64551;BME280;50945;44.472;-123.352;2023-07-22T08:13:39;100590.94;;;16.93;52.59
64551;BME280;50945;44.472;-123.352;2023-07-22T08:16:07;100596.50;;;16.86;52.71
64551;BME280;50945;44.472;-123.352;2023-07-22T08:18:34;100590.13;;;16.79;52.55
64551;BME280;50945;44.472;-123.352;2023-07-22T08:21:02;100592.91;;;16.72;52.99
64551;BME280;50945;44.472;-123.352;2023-07-22T08:23:30;100583.41;;;16.62;53.29
64551;BME280;50945;44.472;-123.352;2023-07-22T08:25:56;100587.91;;;16.56;53.37
64551;BME280;50945;44.472;-123.352;2023-07-22T08:28:23;100588.13;;;16.54;52.98
64551;BME280;50945;44.472;-123.352;2023-07-22T08:30:49;100587.50;;;16.52;53.53
64551;BME280;50945;44.472;-123.352;2023-07-22T08:33:15;100593.00;;;16.52;53.38
64551;BME280;50945;44.472;-123.352;2023-07-22T08:35:42;100594.91;;;16.52;53.82
64551;BME280;50945;44.472;-123.352;2023-07-22T08:38:09;100593.84;;;16.53;53.37
64551;BME280;50945;44.472;-123.352;2023-07-22T08:40:36;100591.09;;;16.53;53.75
64551;BME280;50945;44.472;-123.352;2023-07-22T08:43:03;100584.94;;;16.51;53.39
64551;BME280;50945;44.472;-123.352;2023-07-22T08:45:33;100596.19;;;16.49;53.73
64551;BME280;50945;44.472;-123.352;2023-07-22T08:48:07;100596.41;;;16.48;53.89
64551;BME280;50945;44.472;-123.352;2023-07-22T08:50:56;100596.44;;;16.41;60.07
64551;BME280;50945;44.472;-123.352;2023-07-22T08:53:22;100593.88;;;16.40;53.70
64551;BME280;50945;44.472;-123.352;2023-07-22T08:55:51;100593.03;;;16.39;53.79
64551;BME280;50945;44.472;-123.352;2023-07-22T08:58:17;100592.00;;;16.33;53.99
64551;BME280;50945;44.472;-123.352;2023-07-22T09:00:44;100586.28;;;16.28;54.22
64551;BME280;50945;44.472;-123.352;2023-07-22T09:03:11;100585.25;;;16.23;54.76
64551;BME280;50945;44.472;-123.352;2023-07-22T09:05:38;100591.19;;;16.20;54.58
64551;BME280;50945;44.472;-123.352;2023-07-22T09:08:06;100593.13;;;16.12;54.90
64551;BME280;50945;44.472;-123.352;2023-07-22T09:10:33;100592.91;;;16.07;55.07
64551;BME280;50945;44.472;-123.352;2023-07-22T09:13:01;100589.94;;;16.02;54.89
64551;BME280;50945;44.472;-123.352;2023-07-22T09:15:27;100590.81;;;15.96;55.35
64551;BME280;50945;44.472;-123.352;2023-07-22T09:17:54;100591.25;;;15.93;55.33
64551;BME280;50945;44.472;-123.352;2023-07-22T09:20:21;100585.94;;;15.91;55.55
64551;BME280;50945;44.472;-123.352;2023-07-22T09:22:50;100587.66;;;15.92;55.50
64551;BME280;50945;44.472;-123.352;2023-07-22T09:25:25;100594.00;;;15.93;56.44
64551;BME280;50945;44.472;-123.352;2023-07-22T09:27:53;100594.84;;;15.93;55.51
64551;BME280;50945;44.472;-123.352;2023-07-22T09:30:28;100599.53;;;15.93;55.74
64551;BME280;50945;44.472;-123.352;2023-07-22T09:32:59;100602.47;;;15.91;55.75
64551;BME280;50945;44.472;-123.352;2023-07-22T09:35:28;100603.16;;;15.87;56.01
64551;BME280;50945;44.472;-123.352;2023-07-22T09:37:58;100596.59;;;15.81;55.35
64551;BME280;50945;44.472;-123.352;2023-07-22T09:40:26;100595.09;;;15.78;55.73
64551;BME280;50945;44.472;-123.352;2023-07-22T09:42:57;100597.00;;;15.78;55.90
64551;BME280;50945;44.472;-123.352;2023-07-22T09:45:31;100594.25;;;15.78;55.56
64551;BME280;50945;44.472;-123.352;2023-07-22T09:47:58;100593.38;;;15.71;56.34
64551;BME280;50945;44.472;-123.352;2023-07-22T09:50:26;100594.88;;;15.60;56.19
64551;BME280;50945;44.472;-123.352;2023-07-22T09:52:54;100593.34;;;15.51;56.25
64551;BME280;50945;44.472;-123.352;2023-07-22T09:55:21;100589.13;;;15.42;56.43
64551;BME280;50945;44.472;-123.352;2023-07-22T09:58:02;100577.44;;;15.33;58.30
64551;BME280;50945;44.472;-123.352;2023-07-22T10:00:33;100582.97;;;15.26;57.01
64551;BME280;50945;44.472;-123.352;2023-07-22T10:03:01;100573.00;;;15.18;57.32
64551;BME280;50945;44.472;-123.352;2023-07-22T10:05:28;100576.41;;;15.14;57.54
64551;BME280;50945;44.472;-123.352;2023-07-22T10:07:58;100566.00;;;15.09;57.41
64551;BME280;50945;44.472;-123.352;2023-07-22T10:10:33;100572.78;;;15.07;57.66
64551;BME280;50945;44.472;-123.352;2023-07-22T10:13:00;100573.19;;;15.04;57.66
64551;BME280;50945;44.472;-123.352;2023-07-22T10:15:29;100574.03;;;15.04;58.00
64551;BME280;50945;44.472;-123.352;2023-07-22T10:17:56;100571.91;;;15.06;57.98
64551;BME280;50945;44.472;-123.352;2023-07-22T10:20:23;100583.13;;;15.05;58.01
64551;BME280;50945;44.472;-123.352;2023-07-22T10:22:50;100579.31;;;14.99;58.20
64551;BME280;50945;44.472;-123.352;2023-07-22T10:25:18;100574.66;;;14.93;58.46
64551;BME280;50945;44.472;-123.352;2023-07-22T10:27:46;100572.94;;;14.92;58.76
64551;BME280;50945;44.472;-123.352;2023-07-22T10:30:13;100579.09;;;14.94;58.75
64551;BME280;50945;44.472;-123.352;2023-07-22T10:35:12;100576.53;;;14.86;58.63
64551;BME280;50945;44.472;-123.352;2023-07-22T10:37:39;100580.97;;;14.80;58.14
64551;BME280;50945;44.472;-123.352;2023-07-22T10:40:28;100571.88;;;14.73;61.14
64551;BME280;50945;44.472;-123.352;2023-07-22T10:43:05;100569.91;;;14.67;59.34
64551;BME280;50945;44.472;-123.352;2023-07-22T10:45:51;100572.16;;;14.56;60.38
64551;BME280;50945;44.472;-123.352;2023-07-22T10:48:18;100578.91;;;14.47;58.10
64551;BME280;50945;44.472;-123.352;2023-07-22T10:50:45;100579.75;;;14.41;62.79
64551;BME280;50945;44.472;-123.352;2023-07-22T11:04:14;100584.28;;;14.62;62.62
64551;BME280;50945;44.472;-123.352;2023-07-22T11:12:08;100589.63;;;14.77;58.75
64551;BME280;50945;44.472;-123.352;2023-07-22T11:14:45;100590.69;;;14.76;58.82
64551;BME280;50945;44.472;-123.352;2023-07-22T11:17:11;100587.50;;;14.72;59.23
64551;BME280;50945;44.472;-123.352;2023-07-22T11:19:38;100583.28;;;14.70;59.11
64551;BME280;50945;44.472;-123.352;2023-07-22T11:22:04;100581.13;;;14.65;59.45
64551;BME280;50945;44.472;-123.352;2023-07-22T11:24:33;100582.13;;;14.57;59.84
64551;BME280;50945;44.472;-123.352;2023-07-22T11:27:07;100584.84;;;14.51;59.68
64551;BME280;50945;44.472;-123.352;2023-07-22T11:29:36;100598.75;;;14.42;60.41
64551;BME280;50945;44.472;-123.352;2023-07-22T11:32:03;100600.03;;;14.40;60.36
64551;BME280;50945;44.472;-123.352;2023-07-22T11:34:29;100601.31;;;14.37;60.42
64551;BME280;50945;44.472;-123.352;2023-07-22T11:36:56;100599.34;;;14.31;59.90
64551;BME280;50945;44.472;-123.352;2023-07-22T11:39:27;100599.09;;;14.26;60.01
64551;BME280;50945;44.472;-123.352;2023-07-22T11:41:58;100607.75;;;14.23;60.01
64551;BME280;50945;44.472;-123.352;2023-07-22T11:44:27;100606.06;;;14.22;60.43
64551;BME280;50945;44.472;-123.352;2023-07-22T11:46:57;100614.31;;;14.22;60.38
64551;BME280;50945;44.472;-123.352;2023-07-22T11:49:31;100612.63;;;14.21;60.31
64551;BME280;50945;44.472;-123.352;2023-07-22T11:54:26;100616.59;;;14.12;60.05
64551;BME280;50945;44.472;-123.352;2023-07-22T11:56:53;100609.78;;;14.07;60.55
64551;BME280;50945;44.472;-123.352;2023-07-22T11:59:32;100612.94;;;14.04;66.96
64551;BME280;50945;44.472;-123.352;2023-07-22T12:02:00;100614.84;;;14.04;60.69
64551;BME280;50945;44.472;-123.352;2023-07-22T12:04:27;100622.03;;;14.05;61.07
64551;BME280;50945;44.472;-123.352;2023-07-22T12:06:53;100619.72;;;14.08;61.11
64551;BME280;50945;44.472;-123.352;2023-07-22T12:09:19;100618.69;;;14.10;61.16
64551;BME280;50945;44.472;-123.352;2023-07-22T12:11:45;100620.84;;;14.14;61.33
64551;BME280;50945;44.472;-123.352;2023-07-22T12:14:14;100616.19;;;14.15;61.14
64551;BME280;50945;44.472;-123.352;2023-07-22T12:16:42;100629.72;;;14.16;61.46
64551;BME280;50945;44.472;-123.352;2023-07-22T12:19:09;100629.09;;;14.14;61.56
64551;BME280;50945;44.472;-123.352;2023-07-22T12:21:35;100626.53;;;14.13;61.43
64551;BME280;50945;44.472;-123.352;2023-07-22T12:24:02;100625.66;;;14.12;61.78
64551;BME280;50945;44.472;-123.352;2023-07-22T12:26:30;100624.19;;;14.10;61.53
64551;BME280;50945;44.472;-123.352;2023-07-22T12:28:56;100626.88;;;14.03;61.44
64551;BME280;50945;44.472;-123.352;2023-07-22T12:31:22;100635.06;;;13.96;61.85
64551;BME280;50945;44.472;-123.352;2023-07-22T12:33:48;100644.53;;;13.87;62.14
64551;BME280;50945;44.472;-123.352;2023-07-22T12:36:14;100635.56;;;13.78;62.14
64551;BME280;50945;44.472;-123.352;2023-07-22T12:38:40;100642.91;;;13.71;62.28
64551;BME280;50945;44.472;-123.352;2023-07-22T12:41:07;100646.66;;;13.63;62.34
64551;BME280;50945;44.472;-123.352;2023-07-22T12:43:33;100645.38;;;13.59;62.81